sensor_id;sensor_type;location;lat;lon;timestamp;pressure;altitude;pressure_sealevel;temperature;humidity
77823;BME280;67013;49.730;17.292;2023-03-01T00:01:57;99443.63;;;-0.58;58.33
77823;BME280;67013;49.730;17.292;2023-03-01T00:04:26;99447.61;;;-0.61;58.64
77823;BME280;67013;49.730;17.292;2023-03-01T00:06:56;99441.83;;;-0.62;58.53
77823;BME280;67013;49.730;17.292;2023-03-01T00:09:26;99445.94;;;-0.63;58.49
77823;BME280;67013;49.730;17.292;2023-03-01T00:11:55;99444.41;;;-0.64;58.70
77823;BME280;67013;49.730;17.292;2023-03-01T00:14:25;99444.41;;;-0.65;58.68
77823;BME280;67013;49.730;17.292;2023-03-01T00:16:54;99451.58;;;-0.66;58.39
77823;BME280;67013;49.730;17.292;2023-03-01T00:19:24;99451.25;;;-0.66;58.73
77823;BME280;67013;49.730;17.292;2023-03-01T00:21:53;99446.47;;;-0.66;58.75
77823;BME280;67013;49.730;17.292;2023-03-01T00:24:23;99442.53;;;-0.66;58.86
77823;BME280;67013;49.730;17.292;2023-03-01T00:26:55;99448.00;;;-0.65;58.86
77823;BME280;67013;49.730;17.292;2023-03-01T00:29:25;99446.30;;;-0.67;59.24
77823;BME280;67013;49.730;17.292;2023-03-01T00:31:55;99444.95;;;-0.69;58.67
77823;BME280;67013;49.730;17.292;2023-03-01T00:34:24;99447.51;;;-0.68;59.13
77823;BME280;67013;49.730;17.292;2023-03-01T00:36:54;99445.29;;;-0.68;58.92
77823;BME280;67013;49.730;17.292;2023-03-01T00:39:23;99443.59;;;-0.68;59.12
77823;BME280;67013;49.730;17.292;2023-03-01T00:41:52;99440.35;;;-0.69;59.09
77823;BME280;67013;49.730;17.292;2023-03-01T00:44:22;99442.73;;;-0.69;58.96
77823;BME280;67013;49.730;17.292;2023-03-01T00:46:51;99442.06;;;-0.69;58.94
77823;BME280;67013;49.730;17.292;2023-03-01T00:49:21;99440.35;;;-0.70;58.95
77823;BME280;67013;49.730;17.292;2023-03-01T00:51:52;99439.33;;;-0.70;58.90
77823;BME280;67013;49.730;17.292;2023-03-01T00:54:21;99434.21;;;-0.71;59.11
77823;BME280;67013;49.730;17.292;2023-03-01T00:56:51;99428.23;;;-0.72;59.03
77823;BME280;67013;49.730;17.292;2023-03-01T00:59:20;99424.15;;;-0.73;59.00
77823;BME280;67013;49.730;17.292;2023-03-01T01:01:50;99425.36;;;-0.73;58.98
77823;BME280;67013;49.730;17.292;2023-03-01T01:04:19;99427.91;;;-0.73;58.87
77823;BME280;67013;49.730;17.292;2023-03-01T01:06:49;99425.19;;;-0.74;59.26
77823;BME280;67013;49.730;17.292;2023-03-01T01:09:19;99424.00;;;-0.74;58.97
77823;BME280;67013;49.730;17.292;2023-03-01T01:11:49;99422.48;;;-0.75;59.27
77823;BME280;67013;49.730;17.292;2023-03-01T01:14:20;99420.09;;;-0.75;59.17
77823;BME280;67013;49.730;17.292;2023-03-01T01:16:49;99423.14;;;-0.74;59.07
77823;BME280;67013;49.730;17.292;2023-03-01T01:19:19;99425.52;;;-0.73;59.07
77823;BME280;67013;49.730;17.292;2023-03-01T01:21:49;99425.19;;;-0.74;59.37
77823;BME280;67013;49.730;17.292;2023-03-01T01:24:19;99421.94;;;-0.74;59.40
77823;BME280;67013;49.730;17.292;2023-03-01T01:26:49;99419.37;;;-0.73;59.26
77823;BME280;67013;49.730;17.292;2023-03-01T01:29:18;99414.43;;;-0.74;59.17
77823;BME280;67013;49.730;17.292;2023-03-01T01:31:48;99413.91;;;-0.74;59.13
77823;BME280;67013;49.730;17.292;2023-03-01T01:34:20;99410.17;;;-0.74;59.73
77823;BME280;67013;49.730;17.292;2023-03-01T01:36:51;99404.05;;;-0.75;59.54
77823;BME280;67013;49.730;17.292;2023-03-01T01:39:22;99405.20;;;-0.74;59.49
77823;BME280;67013;49.730;17.292;2023-03-01T01:41:51;99401.44;;;-0.74;59.53
77823;BME280;67013;49.730;17.292;2023-03-01T01:44:23;99399.55;;;-0.73;59.57
77823;BME280;67013;49.730;17.292;2023-03-01T01:46:55;99393.40;;;-0.72;59.77
77823;BME280;67013;49.730;17.292;2023-03-01T01:49:31;99396.83;;;-0.73;59.71
77823;BME280;67013;49.730;17.292;2023-03-01T01:52:07;99396.81;;;-0.73;59.60
77823;BME280;67013;49.730;17.292;2023-03-01T01:54:43;99394.77;;;-0.72;59.64
77823;BME280;67013;49.730;17.292;2023-03-01T01:57:18;99394.77;;;-0.73;59.92
77823;BME280;67013;49.730;17.292;2023-03-01T01:59:53;99395.29;;;-0.73;59.65
77823;BME280;67013;49.730;17.292;2023-03-01T02:02:24;99389.51;;;-0.74;59.84
77823;BME280;67013;49.730;17.292;2023-03-01T02:04:58;99388.30;;;-0.74;59.85
77823;BME280;67013;49.730;17.292;2023-03-01T02:07:32;99385.75;;;-0.75;59.93
77823;BME280;67013;49.730;17.292;2023-03-01T02:10:04;99384.73;;;-0.74;59.63
77823;BME280;67013;49.730;17.292;2023-03-01T02:12:35;99382.35;;;-0.75;59.74
77823;BME280;67013;49.730;17.292;2023-03-01T02:15:07;99380.31;;;-0.75;59.95
77823;BME280;67013;49.730;17.292;2023-03-01T02:17:36;99380.66;;;-0.75;59.90
77823;BME280;67013;49.730;17.292;2023-03-01T02:20:14;99377.59;;;-0.76;60.02
77823;BME280;67013;49.730;17.292;2023-03-01T02:22:49;99372.63;;;-0.75;60.02
77823;BME280;67013;49.730;17.292;2023-03-01T02:25:27;99367.64;;;-0.74;60.14
77823;BME280;67013;49.730;17.292;2023-03-01T02:28:01;99362.52;;;-0.74;60.19
77823;BME280;67013;49.730;17.292;2023-03-01T02:30:36;99364.04;;;-0.73;60.10
77823;BME280;67013;49.730;17.292;2023-03-01T02:33:26;99362.67;;;-0.73;60.27
77823;BME280;67013;49.730;17.292;2023-03-01T02:35:56;99364.20;;;-0.73;60.44
77823;BME280;67013;49.730;17.292;2023-03-01T02:38:26;99360.28;;;-0.73;60.38
77823;BME280;67013;49.730;17.292;2023-03-01T02:40:56;99360.96;;;-0.73;60.34
77823;BME280;67013;49.730;17.292;2023-03-01T02:43:29;99356.02;;;-0.73;60.18
77823;BME280;67013;49.730;17.292;2023-03-01T02:46:05;99357.04;;;-0.73;60.08
77823;BME280;67013;49.730;17.292;2023-03-01T02:48:47;99360.79;;;-0.74;60.30
77823;BME280;67013;49.730;17.292;2023-03-01T02:51:41;99358.40;;;-0.74;60.52
77823;BME280;67013;49.730;17.292;2023-03-01T02:54:22;99359.42;;;-0.73;60.49
77823;BME280;67013;49.730;17.292;2023-03-01T02:56:54;99359.42;;;-0.74;60.51
77823;BME280;67013;49.730;17.292;2023-03-01T02:59:27;99361.32;;;-0.74;60.31
77823;BME280;67013;49.730;17.292;2023-03-01T03:01:58;99356.55;;;-0.75;60.70
77823;BME280;67013;49.730;17.292;2023-03-01T03:04:29;99358.08;;;-0.74;60.47
77823;BME280;67013;49.730;17.292;2023-03-01T03:06:59;99351.09;;;-0.75;60.63
77823;BME280;67013;49.730;17.292;2023-03-01T03:09:28;99352.42;;;-0.74;60.27
77823;BME280;67013;49.730;17.292;2023-03-01T03:11:58;99349.88;;;-0.74;60.48
77823;BME280;67013;49.730;17.292;2023-03-01T03:14:27;99350.73;;;-0.74;60.94
77823;BME280;67013;49.730;17.292;2023-03-01T03:16:57;99348.84;;;-0.74;60.35
77823;BME280;67013;49.730;17.292;2023-03-01T03:19:26;99352.80;;;-0.75;60.63
77823;BME280;67013;49.730;17.292;2023-03-01T03:21:56;99356.02;;;-0.74;60.75
77823;BME280;67013;49.730;17.292;2023-03-01T03:24:25;99354.48;;;-0.74;60.43
77823;BME280;67013;49.730;17.292;2023-03-01T03:26:55;99344.92;;;-0.74;60.63
77823;BME280;67013;49.730;17.292;2023-03-01T03:29:24;99342.92;;;-0.76;60.46
77823;BME280;67013;49.730;17.292;2023-03-01T03:31:54;99342.40;;;-0.75;60.42
77823;BME280;67013;49.730;17.292;2023-03-01T03:34:23;99343.93;;;-0.75;60.51
77823;BME280;67013;49.730;17.292;2023-03-01T03:36:56;99345.82;;;-0.75;60.31
77823;BME280;67013;49.730;17.292;2023-03-01T03:39:27;99345.14;;;-0.76;60.48
77823;BME280;67013;49.730;17.292;2023-03-01T03:42:03;99349.40;;;-0.76;60.63
77823;BME280;67013;49.730;17.292;2023-03-01T03:44:32;99353.50;;;-0.76;60.49
77823;BME280;67013;49.730;17.292;2023-03-01T03:47:02;99355.88;;;-0.75;60.48
77823;BME280;67013;49.730;17.292;2023-03-01T03:49:31;99355.04;;;-0.75;60.75
77823;BME280;67013;49.730;17.292;2023-03-01T03:52:01;99355.50;;;-0.73;60.58
77823;BME280;67013;49.730;17.292;2023-03-01T03:54:30;99351.03;;;-0.70;60.47
77823;BME280;67013;49.730;17.292;2023-03-01T03:56:59;99349.11;;;-0.66;60.36
77823;BME280;67013;49.730;17.292;2023-03-01T03:59:29;99340.17;;;-0.61;60.20
77823;BME280;67013;49.730;17.292;2023-03-01T04:01:59;99346.92;;;-0.55;60.39
77823;BME280;67013;49.730;17.292;2023-03-01T04:04:28;99341.89;;;-0.48;60.04
77823;BME280;67013;49.730;17.292;2023-03-01T04:06:57;99336.33;;;-0.43;60.14
77823;BME280;67013;49.730;17.292;2023-03-01T04:09:27;99338.34;;;-0.39;59.88
77823;BME280;67013;49.730;17.292;2023-03-01T04:11:58;99337.27;;;-0.36;59.85
77823;BME280;67013;49.730;17.292;2023-03-01T04:14:27;99344.60;;;-0.34;59.54
77823;BME280;67013;49.730;17.292;2023-03-01T04:16:57;99350.55;;;-0.32;60.16
77823;BME280;67013;49.730;17.292;2023-03-01T04:19:26;99352.60;;;-0.31;59.66
77823;BME280;67013;49.730;17.292;2023-03-01T04:21:56;99354.80;;;-0.30;59.69
77823;BME280;67013;49.730;17.292;2023-03-01T04:24:25;99351.05;;;-0.31;59.58
77823;BME280;67013;49.730;17.292;2023-03-01T04:26:54;99356.21;;;-0.33;59.89
77823;BME280;67013;49.730;17.292;2023-03-01T04:29:24;99349.05;;;-0.35;59.60
77823;BME280;67013;49.730;17.292;2023-03-01T04:31:53;99349.38;;;-0.34;59.64
77823;BME280;67013;49.730;17.292;2023-03-01T04:34:23;99349.05;;;-0.35;59.70
77823;BME280;67013;49.730;17.292;2023-03-01T04:36:55;99351.98;;;-0.37;59.55
77823;BME280;67013;49.730;17.292;2023-03-01T04:39:25;99349.62;;;-0.40;59.82
77823;BME280;67013;49.730;17.292;2023-03-01T04:41:54;99345.20;;;-0.43;59.82
77823;BME280;67013;49.730;17.292;2023-03-01T04:44:24;99346.11;;;-0.45;59.67
77823;BME280;67013;49.730;17.292;2023-03-01T04:46:53;99352.13;;;-0.47;59.63
77823;BME280;67013;49.730;17.292;2023-03-01T04:49:23;99358.64;;;-0.50;59.74
77823;BME280;67013;49.730;17.292;2023-03-01T04:51:52;99358.50;;;-0.53;60.09
77823;BME280;67013;49.730;17.292;2023-03-01T04:54:22;99355.45;;;-0.55;59.55
77823;BME280;67013;49.730;17.292;2023-03-01T04:56:51;99354.80;;;-0.57;59.88
77823;BME280;67013;49.730;17.292;2023-03-01T04:59:21;99352.78;;;-0.60;60.02
77823;BME280;67013;49.730;17.292;2023-03-01T05:01:51;99353.34;;;-0.62;60.17
77823;BME280;67013;49.730;17.292;2023-03-01T05:04:23;99353.02;;;-0.64;59.81
77823;BME280;67013;49.730;17.292;2023-03-01T05:06:53;99347.39;;;-0.65;60.25
77823;BME280;67013;49.730;17.292;2023-03-01T05:09:24;99345.02;;;-0.67;60.35
77823;BME280;67013;49.730;17.292;2023-03-01T05:11:53;99341.64;;;-0.70;60.32
77823;BME280;67013;49.730;17.292;2023-03-01T05:14:22;99337.58;;;-0.74;60.56
77823;BME280;67013;49.730;17.292;2023-03-01T05:16:52;99334.91;;;-0.78;60.85
77823;BME280;67013;49.730;17.292;2023-03-01T05:19:22;99335.98;;;-0.81;60.98
77823;BME280;67013;49.730;17.292;2023-03-01T05:21:51;99332.25;;;-0.85;61.14
77823;BME280;67013;49.730;17.292;2023-03-01T05:24:34;99326.83;;;-0.88;60.95
77823;BME280;67013;49.730;17.292;2023-03-01T05:27:04;99332.86;;;-0.91;61.29
77823;BME280;67013;49.730;17.292;2023-03-01T05:29:34;99335.95;;;-0.93;61.44
77823;BME280;67013;49.730;17.292;2023-03-01T05:32:04;99334.27;;;-0.95;61.65
77823;BME280;67013;49.730;17.292;2023-03-01T05:34:35;99345.55;;;-0.97;61.86
77823;BME280;67013;49.730;17.292;2023-03-01T05:37:05;99347.44;;;-0.98;61.70
77823;BME280;67013;49.730;17.292;2023-03-01T05:39:36;99342.12;;;-0.96;62.00
77823;BME280;67013;49.730;17.292;2023-03-01T05:42:05;99342.25;;;-0.92;62.01
77823;BME280;67013;49.730;17.292;2023-03-01T05:44:36;99346.11;;;-0.88;61.88
77823;BME280;67013;49.730;17.292;2023-03-01T05:47:06;99346.91;;;-0.83;61.76
77823;BME280;67013;49.730;17.292;2023-03-01T05:49:36;99352.45;;;-0.74;61.73
77823;BME280;67013;49.730;17.292;2023-03-01T05:52:05;99354.05;;;-0.64;61.58
77823;BME280;67013;49.730;17.292;2023-03-01T05:54:35;99355.30;;;-0.57;61.56
77823;BME280;67013;49.730;17.292;2023-03-01T05:57:04;99354.71;;;-0.50;61.58
77823;BME280;67013;49.730;17.292;2023-03-01T05:59:34;99351.05;;;-0.44;61.24
77823;BME280;67013;49.730;17.292;2023-03-01T06:02:04;99355.76;;;-0.38;61.42
77823;BME280;67013;49.730;17.292;2023-03-01T06:04:34;99351.58;;;-0.32;60.87
77823;BME280;67013;49.730;17.292;2023-03-01T06:07:03;99348.89;;;-0.23;60.50
77823;BME280;67013;49.730;17.292;2023-03-01T06:09:33;99349.96;;;-0.15;60.29
77823;BME280;67013;49.730;17.292;2023-03-01T06:12:02;99347.63;;;-0.07;59.82
77823;BME280;67013;49.730;17.292;2023-03-01T06:14:33;99353.16;;;0.53;59.30
77823;BME280;67013;49.730;17.292;2023-03-01T06:17:02;99356.39;;;1.61;57.91
77823;BME280;67013;49.730;17.292;2023-03-01T06:19:32;99353.05;;;2.75;56.29
77823;BME280;67013;49.730;17.292;2023-03-01T06:22:01;99350.38;;;3.88;54.37
77823;BME280;67013;49.730;17.292;2023-03-01T06:24:30;99348.30;;;4.93;52.58
77823;BME280;67013;49.730;17.292;2023-03-01T06:27:01;99348.07;;;5.99;50.38
77823;BME280;67013;49.730;17.292;2023-03-01T06:29:30;99345.92;;;7.02;48.39
77823;BME280;67013;49.730;17.292;2023-03-01T06:32:00;99345.58;;;8.05;46.04
77823;BME280;67013;49.730;17.292;2023-03-01T06:34:30;99343.69;;;9.10;44.52
77823;BME280;67013;49.730;17.292;2023-03-01T06:37:00;99343.02;;;10.13;42.58
77823;BME280;67013;49.730;17.292;2023-03-01T06:39:33;99346.02;;;11.11;40.95
77823;BME280;67013;49.730;17.292;2023-03-01T06:42:03;99339.11;;;12.06;39.00
77823;BME280;67013;49.730;17.292;2023-03-01T06:44:32;99334.11;;;12.98;37.33
77823;BME280;67013;49.730;17.292;2023-03-01T06:47:02;99330.14;;;13.83;35.11
77823;BME280;67013;49.730;17.292;2023-03-01T06:49:32;99324.95;;;14.55;34.20
77823;BME280;67013;49.730;17.292;2023-03-01T06:52:01;99334.21;;;15.38;32.95
77823;BME280;67013;49.730;17.292;2023-03-01T06:54:31;99331.42;;;16.15;31.49
77823;BME280;67013;49.730;17.292;2023-03-01T06:57:01;99333.60;;;16.87;30.24
77823;BME280;67013;49.730;17.292;2023-03-01T06:59:30;99337.25;;;17.59;28.98
77823;BME280;67013;49.730;17.292;2023-03-01T07:02:00;99339.91;;;18.31;28.46
77823;BME280;67013;49.730;17.292;2023-03-01T07:04:29;99335.36;;;19.08;27.64
77823;BME280;67013;49.730;17.292;2023-03-01T07:06:59;99340.71;;;19.80;26.42
77823;BME280;67013;49.730;17.292;2023-03-01T07:09:28;99341.35;;;20.50;25.20
77823;BME280;67013;49.730;17.292;2023-03-01T07:11:58;99336.91;;;20.96;23.94
77823;BME280;67013;49.730;17.292;2023-03-01T07:14:28;99338.29;;;21.43;23.24
77823;BME280;67013;49.730;17.292;2023-03-01T07:16:58;99339.73;;;21.82;22.68
77823;BME280;67013;49.730;17.292;2023-03-01T07:19:28;99339.65;;;22.25;22.48
77823;BME280;67013;49.730;17.292;2023-03-01T07:21:57;99341.70;;;22.78;21.98
77823;BME280;67013;49.730;17.292;2023-03-01T07:24:27;99336.27;;;23.36;21.16
77823;BME280;67013;49.730;17.292;2023-03-01T07:26:57;99338.86;;;23.97;20.54
77823;BME280;67013;49.730;17.292;2023-03-01T07:29:26;99335.64;;;24.55;19.78
77823;BME280;67013;49.730;17.292;2023-03-01T07:31:56;99333.47;;;25.27;19.33
77823;BME280;67013;49.730;17.292;2023-03-01T07:34:26;99327.20;;;26.14;18.65
77823;BME280;67013;49.730;17.292;2023-03-01T07:36:55;99326.85;;;27.15;18.05
77823;BME280;67013;49.730;17.292;2023-03-01T07:39:25;99335.08;;;28.06;17.11
77823;BME280;67013;49.730;17.292;2023-03-01T07:41:54;99336.02;;;28.77;16.65
77823;BME280;67013;49.730;17.292;2023-03-01T07:44:24;99335.03;;;29.52;16.13
77823;BME280;67013;49.730;17.292;2023-03-01T07:46:53;99331.05;;;30.48;16.04
77823;BME280;67013;49.730;17.292;2023-03-01T07:49:24;99319.48;;;31.31;15.12
77823;BME280;67013;49.730;17.292;2023-03-01T07:51:55;99318.83;;;31.91;14.58
77823;BME280;67013;49.730;17.292;2023-03-01T07:54:24;99322.20;;;32.26;14.45
77823;BME280;67013;49.730;17.292;2023-03-01T07:56:54;99323.05;;;32.40;14.28
77823;BME280;67013;49.730;17.292;2023-03-01T07:59:25;99327.23;;;32.40;13.93
77823;BME280;67013;49.730;17.292;2023-03-01T08:01:57;99328.36;;;32.32;13.62
77823;BME280;67013;49.730;17.292;2023-03-01T08:04:26;99325.83;;;32.40;13.44
77823;BME280;67013;49.730;17.292;2023-03-01T08:06:56;99321.22;;;32.74;13.48
77823;BME280;67013;49.730;17.292;2023-03-01T08:09:25;99311.11;;;33.23;13.11
77823;BME280;67013;49.730;17.292;2023-03-01T08:11:55;99307.66;;;33.87;13.10
77823;BME280;67013;49.730;17.292;2023-03-01T08:14:25;99310.62;;;34.71;12.68
77823;BME280;67013;49.730;17.292;2023-03-01T08:16:55;99307.74;;;35.03;11.31
77823;BME280;67013;49.730;17.292;2023-03-01T08:19:24;99306.88;;;35.24;11.31
77823;BME280;67013;49.730;17.292;2023-03-01T08:21:56;99310.74;;;35.55;11.49
77823;BME280;67013;49.730;17.292;2023-03-01T08:24:28;99305.36;;;35.90;11.17
77823;BME280;67013;49.730;17.292;2023-03-01T08:26:57;99309.58;;;36.21;11.12
77823;BME280;67013;49.730;17.292;2023-03-01T08:29:26;99303.61;;;36.48;10.31
77823;BME280;67013;49.730;17.292;2023-03-01T08:31:56;99307.87;;;36.73;10.86
77823;BME280;67013;49.730;17.292;2023-03-01T08:34:25;99302.20;;;37.21;10.45
77823;BME280;67013;49.730;17.292;2023-03-01T08:36:55;99296.94;;;37.59;10.41
77823;BME280;67013;49.730;17.292;2023-03-01T08:39:24;99300.16;;;37.99;10.17
77823;BME280;67013;49.730;17.292;2023-03-01T08:41:54;99300.70;;;38.36;9.76
77823;BME280;67013;49.730;17.292;2023-03-01T08:44:23;99298.61;;;38.59;9.29
77823;BME280;67013;49.730;17.292;2023-03-01T08:46:53;99289.86;;;37.96;9.43
77823;BME280;67013;49.730;17.292;2023-03-01T08:49:23;99290.39;;;38.08;9.22
77823;BME280;67013;49.730;17.292;2023-03-01T08:51:53;99288.23;;;37.64;9.50
77823;BME280;67013;49.730;17.292;2023-03-01T08:54:23;99286.09;;;37.66;9.84
77823;BME280;67013;49.730;17.292;2023-03-01T08:56:52;99277.80;;;37.93;9.71
77823;BME280;67013;49.730;17.292;2023-03-01T08:59:22;99281.77;;;38.30;9.85
77823;BME280;67013;49.730;17.292;2023-03-01T09:01:51;99279.44;;;38.36;9.64
77823;BME280;67013;49.730;17.292;2023-03-01T09:04:21;99270.61;;;37.82;8.91
77823;BME280;67013;49.730;17.292;2023-03-01T09:06:50;99278.05;;;36.44;9.56
77823;BME280;67013;49.730;17.292;2023-03-01T09:09:20;99269.27;;;35.99;10.02
77823;BME280;67013;49.730;17.292;2023-03-01T09:11:49;99266.03;;;35.89;9.99
77823;BME280;67013;49.730;17.292;2023-03-01T09:14:18;99267.06;;;35.77;10.19
77823;BME280;67013;49.730;17.292;2023-03-01T09:16:48;99261.41;;;35.48;9.91
77823;BME280;67013;49.730;17.292;2023-03-01T09:19:18;99259.54;;;35.00;10.14
77823;BME280;67013;49.730;17.292;2023-03-01T09:21:47;99256.00;;;34.91;10.48
77823;BME280;67013;49.730;17.292;2023-03-01T09:24:23;99256.66;;;35.19;10.30
77823;BME280;67013;49.730;17.292;2023-03-01T09:26:54;99254.81;;;35.21;9.95
77823;BME280;67013;49.730;17.292;2023-03-01T09:29:24;99256.40;;;35.16;10.02
77823;BME280;67013;49.730;17.292;2023-03-01T09:31:54;99257.75;;;35.58;10.10
77823;BME280;67013;49.730;17.292;2023-03-01T09:34:24;99252.66;;;36.20;10.17
77823;BME280;67013;49.730;17.292;2023-03-01T09:36:53;99245.95;;;37.05;9.89
77823;BME280;67013;49.730;17.292;2023-03-01T09:39:23;99247.63;;;37.62;9.46
77823;BME280;67013;49.730;17.292;2023-03-01T09:41:57;99248.91;;;37.90;9.10
77823;BME280;67013;49.730;17.292;2023-03-01T09:44:32;99247.69;;;38.00;9.29
77823;BME280;67013;49.730;17.292;2023-03-01T09:47:07;99249.11;;;38.12;9.24
77823;BME280;67013;49.730;17.292;2023-03-01T09:49:41;99243.69;;;37.96;8.45
77823;BME280;67013;49.730;17.292;2023-03-01T09:52:25;99240.02;;;36.16;8.55
77823;BME280;67013;49.730;17.292;2023-03-01T09:54:58;99243.53;;;34.41;9.37
77823;BME280;67013;49.730;17.292;2023-03-01T09:57:33;99242.41;;;33.42;10.00
77823;BME280;67013;49.730;17.292;2023-03-01T10:00:15;99240.17;;;32.90;10.46
77823;BME280;67013;49.730;17.292;2023-03-01T10:02:51;99241.16;;;32.03;11.22
77823;BME280;67013;49.730;17.292;2023-03-01T10:05:38;99235.77;;;30.60;11.84
77823;BME280;67013;49.730;17.292;2023-03-01T10:08:33;99231.98;;;27.54;12.68
77823;BME280;67013;49.730;17.292;2023-03-01T10:11:05;99239.13;;;24.94;14.54
77823;BME280;67013;49.730;17.292;2023-03-01T10:13:50;99242.13;;;23.25;16.07
77823;BME280;67013;49.730;17.292;2023-03-01T10:16:24;99235.60;;;21.65;17.31
77823;BME280;67013;49.730;17.292;2023-03-01T10:19:00;99238.63;;;19.86;18.52
77823;BME280;67013;49.730;17.292;2023-03-01T10:21:31;99237.79;;;18.27;20.38
77823;BME280;67013;49.730;17.292;2023-03-01T10:24:11;99237.20;;;17.17;21.37
77823;BME280;67013;49.730;17.292;2023-03-01T10:26:48;99231.24;;;16.57;21.98
77823;BME280;67013;49.730;17.292;2023-03-01T10:29:25;99230.71;;;15.92;23.05
77823;BME280;67013;49.730;17.292;2023-03-01T10:31:56;99233.86;;;15.34;24.23
77823;BME280;67013;49.730;17.292;2023-03-01T10:34:30;99238.56;;;14.86;24.58
77823;BME280;67013;49.730;17.292;2023-03-01T10:37:09;99236.40;;;14.64;25.63
77823;BME280;67013;49.730;17.292;2023-03-01T10:39:56;99231.34;;;14.47;25.60
77823;BME280;67013;49.730;17.292;2023-03-01T10:42:29;99233.05;;;14.24;25.49
77823;BME280;67013;49.730;17.292;2023-03-01T10:45:00;99226.34;;;13.94;25.96
77823;BME280;67013;49.730;17.292;2023-03-01T10:47:43;99227.21;;;13.66;26.64
77823;BME280;67013;49.730;17.292;2023-03-01T10:50:21;99219.60;;;13.31;27.03
77823;BME280;67013;49.730;17.292;2023-03-01T10:53:00;99215.73;;;13.01;27.55
77823;BME280;67013;49.730;17.292;2023-03-01T10:55:35;99213.14;;;12.83;27.64
77823;BME280;67013;49.730;17.292;2023-03-01T10:58:16;99208.89;;;12.68;28.34
77823;BME280;67013;49.730;17.292;2023-03-01T11:00:51;99201.67;;;12.64;28.06
77823;BME280;67013;49.730;17.292;2023-03-01T11:03:23;99195.41;;;12.77;28.37
77823;BME280;67013;49.730;17.292;2023-03-01T11:05:56;99189.36;;;12.89;28.18
77823;BME280;67013;49.730;17.292;2023-03-01T11:08:37;99179.97;;;12.93;28.20
77823;BME280;67013;49.730;17.292;2023-03-01T11:11:16;99179.84;;;13.07;28.18
77823;BME280;67013;49.730;17.292;2023-03-01T11:13:58;99171.94;;;13.18;28.00
77823;BME280;67013;49.730;17.292;2023-03-01T11:16:31;99166.41;;;12.97;28.29
77823;BME280;67013;49.730;17.292;2023-03-01T11:19:17;99162.10;;;12.84;28.52
77823;BME280;67013;49.730;17.292;2023-03-01T11:21:54;99161.63;;;12.63;28.85
77823;BME280;67013;49.730;17.292;2023-03-01T11:24:31;99157.35;;;12.34;28.96
77823;BME280;67013;49.730;17.292;2023-03-01T11:27:04;99153.91;;;12.02;29.44
77823;BME280;67013;49.730;17.292;2023-03-01T11:29:40;99148.73;;;11.91;30.29
77823;BME280;67013;49.730;17.292;2023-03-01T11:32:13;99150.39;;;11.79;30.52
77823;BME280;67013;49.730;17.292;2023-03-01T11:34:47;99149.27;;;11.59;30.39
77823;BME280;67013;49.730;17.292;2023-03-01T11:37:26;99148.63;;;11.33;30.82
77823;BME280;67013;49.730;17.292;2023-03-01T11:40:12;99151.02;;;11.12;31.33
77823;BME280;67013;49.730;17.292;2023-03-01T11:42:50;99150.04;;;10.97;31.61
77823;BME280;67013;49.730;17.292;2023-03-01T11:45:24;99144.80;;;10.89;32.23
77823;BME280;67013;49.730;17.292;2023-03-01T11:48:06;99139.38;;;10.81;32.39
77823;BME280;67013;49.730;17.292;2023-03-01T11:50:44;99142.45;;;10.71;32.29
77823;BME280;67013;49.730;17.292;2023-03-01T11:53:31;99134.59;;;10.69;32.49
77823;BME280;67013;49.730;17.292;2023-03-01T11:56:13;99130.64;;;10.74;32.80
77823;BME280;67013;49.730;17.292;2023-03-01T11:58:58;99127.31;;;10.80;33.37
77823;BME280;67013;49.730;17.292;2023-03-01T12:01:41;99126.49;;;10.90;33.30
77823;BME280;67013;49.730;17.292;2023-03-01T12:04:36;99124.84;;;10.97;33.24
77823;BME280;67013;49.730;17.292;2023-03-01T12:07:22;99121.92;;;11.02;33.39
77823;BME280;67013;49.730;17.292;2023-03-01T12:10:14;99113.44;;;11.06;33.33
77823;BME280;67013;49.730;17.292;2023-03-01T12:12:58;99109.52;;;11.11;33.36
77823;BME280;67013;49.730;17.292;2023-03-01T12:15:51;99111.95;;;11.08;33.51
77823;BME280;67013;49.730;17.292;2023-03-01T12:22:02;99113.58;;;10.90;33.57
77823;BME280;67013;49.730;17.292;2023-03-01T12:24:43;99114.33;;;10.84;33.75
77823;BME280;67013;49.730;17.292;2023-03-01T12:27:26;99110.71;;;10.78;34.12
77823;BME280;67013;49.730;17.292;2023-03-01T12:30:05;99106.77;;;10.71;34.17
77823;BME280;67013;49.730;17.292;2023-03-01T12:32:50;99100.32;;;10.66;34.25
77823;BME280;67013;49.730;17.292;2023-03-01T12:35:37;99091.10;;;10.60;34.49
77823;BME280;67013;49.730;17.292;2023-03-01T12:38:08;99097.63;;;10.56;34.73
77823;BME280;67013;49.730;17.292;2023-03-01T12:40:53;99093.66;;;10.47;34.79
77823;BME280;67013;49.730;17.292;2023-03-01T12:43:39;99087.80;;;10.35;34.74
77823;BME280;67013;49.730;17.292;2023-03-01T12:46:21;99090.45;;;10.23;34.90
77823;BME280;67013;49.730;17.292;2023-03-01T12:49:02;99090.21;;;10.14;35.15
77823;BME280;67013;49.730;17.292;2023-03-01T12:51:37;99091.57;;;10.07;35.11
77823;BME280;67013;49.730;17.292;2023-03-01T12:54:14;99088.78;;;10.01;35.38
77823;BME280;67013;49.730;17.292;2023-03-01T12:56:44;99086.89;;;9.92;35.71
77823;BME280;67013;49.730;17.292;2023-03-01T12:59:23;99089.48;;;9.80;35.93
77823;BME280;67013;49.730;17.292;2023-03-01T13:02:00;99094.80;;;9.69;36.14
77823;BME280;67013;49.730;17.292;2023-03-01T13:04:40;99092.98;;;9.62;36.39
77823;BME280;67013;49.730;17.292;2023-03-01T13:07:27;99096.05;;;9.53;36.62
77823;BME280;67013;49.730;17.292;2023-03-01T13:10:08;99093.52;;;9.43;36.71
77823;BME280;67013;49.730;17.292;2023-03-01T13:13:00;99093.39;;;9.37;37.15
77823;BME280;67013;49.730;17.292;2023-03-01T13:15:32;99094.80;;;9.27;37.22
77823;BME280;67013;49.730;17.292;2023-03-01T13:18:11;99092.29;;;9.16;37.22
77823;BME280;67013;49.730;17.292;2023-03-01T13:20:52;99087.97;;;9.06;37.37
77823;BME280;67013;49.730;17.292;2023-03-01T13:23:30;99088.55;;;8.99;37.77